Time;durP1;ratioP1;P1;durP2;ratioP2;P2;SDS_P1;SDS_P2;PMS_P1;PMS_P2;Temp;Humidity;BMP_temperature;BMP_pressure;BME280_temperature;BME280_humidity;BME280_pressure;Samples;Min_cycle;Max_cycle;Signal;HPM_P1;HPM_P2
2021/01/27 00:00:47;;;;;;;29.67;28.17;;;22.00;99.90;;;;;;5074141;28;20493;-57
2021/01/27 00:03:15;;;;;;;29.13;27.55;;;21.90;99.90;;;;;;5074048;28;20032;-51
2021/01/27 00:05:46;;;;;;;29.40;27.80;;;21.80;99.90;;;;;;5074058;28;20059;-51
2021/01/27 00:08:12;;;;;;;;;;;21.80;99.90;;;;;;5074408;28;20102;-55
2021/01/27 00:10:40;;;;;;;30.00;28.35;;;21.90;99.90;;;;;;5073870;28;19939;-62
2021/01/27 00:13:15;;;;;;;29.67;27.88;;;22.00;99.90;;;;;;5073854;28;20493;-55
2021/01/27 00:15:44;;;;;;;28.25;26.65;;;22.10;99.90;;;;;;5074127;28;20017;-51
2021/01/27 00:18:14;;;;;;;28.38;26.67;;;22.10;99.90;;;;;;5073884;28;20382;-50
2021/01/27 00:20:42;;;;;;;27.13;25.55;;;22.00;99.90;;;;;;5073873;28;20020;-51
2021/01/27 00:23:10;;;;;;;27.90;26.17;;;22.00;99.90;;;;;;5073776;28;20036;-53
2021/01/27 00:25:38;;;;;;;27.63;25.85;;;22.00;99.90;;;;;;5073561;28;20033;-57
2021/01/27 00:28:08;;;;;;;27.33;25.63;;;22.00;99.90;;;;;;5073531;28;20164;-58
2021/01/27 00:30:39;;;;;;;27.40;25.63;;;22.00;99.90;;;;;;5073540;28;20025;-54
2021/01/27 00:33:06;;;;;;;;;;;22.00;99.90;;;;;;5073726;28;20033;-57
2021/01/27 00:35:40;;;;;;;27.50;25.65;;;22.10;99.90;;;;;;5073297;28;19912;-55
2021/01/27 00:38:13;;;;;;;26.75;25.02;;;22.00;99.90;;;;;;5073410;28;20028;-56
2021/01/27 00:40:40;;;;;;;27.40;25.75;;;22.00;99.90;;;;;;5073365;28;20528;-60
2021/01/27 00:43:07;;;;;;;25.95;24.40;;;21.90;99.90;;;;;;5073267;28;20126;-63
2021/01/27 00:45:35;;;;;;;24.17;22.67;;;21.90;99.90;;;;;;5073218;28;20381;-59
2021/01/27 00:48:03;;;;;;;24.73;23.13;;;22.00;99.90;;;;;;5073508;28;20611;-63
2021/01/27 00:50:30;;;;;;;22.38;20.88;;;22.00;99.90;;;;;;5073146;28;20020;-51
2021/01/27 00:52:58;;;;;;;23.10;21.67;;;22.00;99.90;;;;;;5073173;28;20048;-56
2021/01/27 00:55:29;;;;;;;22.85;21.30;;;22.10;99.90;;;;;;5073199;28;20024;-56
2021/01/27 00:57:57;;;;;;;22.63;21.10;;;22.10;99.90;;;;;;5073165;28;20020;-54
2021/01/27 01:00:29;;;;;;;22.30;20.70;;;22.30;99.90;;;;;;5073187;28;20016;-58
2021/01/27 01:02:57;;;;;;;21.13;19.52;;;22.30;99.90;;;;;;5072666;28;20112;-57
2021/01/27 01:05:44;;;;;;;20.77;19.27;;;22.50;99.90;;;;;;5073134;28;20024;-58
2021/01/27 01:08:15;;;;;;;19.80;18.50;;;22.40;99.90;;;;;;5073034;28;20041;-56
2021/01/27 01:10:48;;;;;;;20.13;18.52;;;22.50;99.90;;;;;;5073127;28;20020;-58
2021/01/27 01:13:19;;;;;;;20.27;18.30;;;22.60;99.90;;;;;;5072923;28;20078;-57
2021/01/27 01:15:46;;;;;;;19.85;18.30;;;22.70;99.90;;;;;;5073093;28;20017;-56
2021/01/27 01:18:15;;;;;;;18.48;17.15;;;22.90;99.90;;;;;;5072992;28;20074;-57
2021/01/27 01:20:42;;;;;;;16.77;15.73;;;23.10;99.90;;;;;;5072896;28;20481;-57
2021/01/27 01:23:11;;;;;;;16.73;15.43;;;23.20;99.90;;;;;;5073267;28;20443;-55
2021/01/27 01:25:38;;;;;;;18.20;16.73;;;23.10;99.90;;;;;;5072691;28;20482;-51
2021/01/27 01:28:06;;;;;;;17.52;16.23;;;23.10;99.90;;;;;;5073188;28;20029;-50
2021/01/27 01:30:36;;;;;;;16.83;15.52;;;23.20;99.90;;;;;;5073339;28;20023;-55
2021/01/27 01:33:06;;;;;;;16.13;14.88;;;23.10;99.90;;;;;;5073133;28;20115;-52
2021/01/27 01:35:34;;;;;;;18.77;17.13;;;23.20;99.90;;;;;;5073401;28;20096;-54
2021/01/27 01:38:01;;;;;;;16.95;15.73;;;23.10;99.90;;;;;;5073654;28;20025;-53
2021/01/27 01:40:33;;;;;;;17.17;15.77;;;23.10;99.90;;;;;;5073147;28;20024;-49
2021/01/27 01:43:14;;;;;;;17.48;16.15;;;22.90;99.90;;;;;;5073227;28;20111;-50
2021/01/27 01:45:48;;;;;;;18.02;16.50;;;22.90;99.90;;;;;;5073167;28;20029;-47
2021/01/27 01:48:38;;;;;;;18.05;16.52;;;22.90;99.90;;;;;;5073167;28;20055;-54
2021/01/27 01:51:17;;;;;;;16.67;15.45;;;22.80;99.90;;;;;;5073416;28;20089;-52
2021/01/27 01:53:49;;;;;;;17.23;15.82;;;22.70;99.90;;;;;;5073196;28;20457;-50
2021/01/27 01:56:20;;;;;;;17.60;16.08;;;22.70;99.90;;;;;;5073412;28;20021;-51
2021/01/27 01:58:50;;;;;;;18.33;16.52;;;22.60;99.90;;;;;;5073192;28;20020;-50
2021/01/27 02:01:19;;;;;;;19.10;17.33;;;22.60;99.90;;;;;;5072808;28;20025;-52
2021/01/27 02:03:49;;;;;;;19.42;17.42;;;22.60;99.90;;;;;;5073073;28;20032;-47
2021/01/27 02:06:17;;;;;;;20.60;17.67;;;22.60;99.90;;;;;;5072846;28;20048;-50
2021/01/27 02:08:53;;;;;;;18.52;16.98;;;22.50;99.90;;;;;;5072366;28;20028;-51
2021/01/27 02:11:50;;;;;;;20.05;17.98;;;22.50;99.90;;;;;;5072272;28;20052;-51
2021/01/27 02:14:30;;;;;;;20.63;17.80;;;22.50;99.90;;;;;;5075338;28;20183;-55
2021/01/27 02:17:26;;;;;;;18.85;17.05;;;22.60;99.90;;;;;;5075888;28;20074;-54
2021/01/27 02:20:05;;;;;;;19.05;17.38;;;22.70;99.90;;;;;;5075884;28;20024;-46
2021/01/27 02:23:10;;;;;;;18.55;16.90;;;22.70;99.90;;;;;;5076263;28;20028;-47
2021/01/27 02:26:03;;;;;;;18.38;16.58;;;22.70;99.90;;;;;;5014000;28;20057;-50
2021/01/27 02:29:19;;;;;;;17.48;16.25;;;22.60;99.90;;;;;;5074592;28;20112;-49
2021/01/27 02:32:23;;;;;;;18.27;16.38;;;22.60;99.90;;;;;;5075715;28;20094;-49
2021/01/27 02:35:28;;;;;;;18.27;16.42;;;22.50;99.90;;;;;;5075704;28;20357;-50
2021/01/27 02:38:11;;;;;;;18.58;16.60;;;22.50;99.90;;;;;;5013896;28;20515;-49
2021/01/27 02:40:54;;;;;;;19.70;16.73;;;22.40;99.90;;;;;;5071779;28;20032;-59
2021/01/27 02:43:24;;;;;;;22.05;18.70;;;22.30;99.90;;;;;;5075632;28;20419;-58
2021/01/27 02:46:21;;;;;;;21.02;18.77;;;22.20;99.90;;;;;;5075546;28;20426;-61
2021/01/27 02:49:23;;;;;;;21.75;18.50;;;22.10;99.90;;;;;;5075004;28;20115;-60
2021/01/27 02:52:15;;;;;;;20.17;18.50;;;22.00;99.90;;;;;;5075512;28;20070;-61
2021/01/27 02:54:49;;;;;;;20.38;18.33;;;22.00;99.90;;;;;;5075488;28;20025;-54
2021/01/27 02:57:39;;;;;;;21.08;18.92;;;22.10;99.90;;;;;;5075199;28;20040;-58
2021/01/27 03:00:10;;;;;;;21.05;18.98;;;22.00;99.90;;;;;;5066150;28;20033;-48
2021/01/27 03:02:57;;;;;;;21.20;18.73;;;22.00;99.90;;;;;;5075417;28;20021;-46
2021/01/27 03:05:29;;;;;;;21.30;19.30;;;21.90;99.90;;;;;;5075196;28;20025;-53
2021/01/27 03:08:04;;;;;;;23.73;21.20;;;21.80;99.90;;;;;;5075133;28;20552;-51
2021/01/27 03:10:53;;;;;;;23.35;20.95;;;21.80;99.90;;;;;;5075162;28;20103;-47
2021/01/27 03:13:20;;;;;;;23.95;21.95;;;21.70;99.90;;;;;;5074933;28;20499;-51
2021/01/27 03:15:48;;;;;;;22.25;20.30;;;21.70;99.90;;;;;;5075042;28;20016;-47
2021/01/27 03:18:28;;;;;;;22.92;20.88;;;21.60;99.90;;;;;;5075038;28;20024;-58
2021/01/27 03:21:06;;;;;;;22.88;20.83;;;21.60;99.90;;;;;;5075094;28;20561;-52
2021/01/27 03:23:50;;;;;;;23.15;21.13;;;21.60;99.90;;;;;;5074895;28;20504;-47
2021/01/27 03:26:30;;;;;;;23.88;21.83;;;21.50;99.90;;;;;;5074121;28;20105;-49
2021/01/27 03:29:07;;;;;;;26.38;23.17;;;21.50;99.90;;;;;;5074719;28;20081;-52
2021/01/27 03:31:35;;;;;;;24.75;22.83;;;21.40;99.90;;;;;;5074765;28;20025;-51
2021/01/27 03:34:07;;;;;;;23.80;21.63;;;21.50;99.90;;;;;;5074636;28;20035;-51
2021/01/27 03:36:50;;;;;;;24.42;21.90;;;21.40;99.90;;;;;;5074716;28;20025;-63
2021/01/27 03:39:20;;;;;;;23.90;21.65;;;21.40;99.90;;;;;;5074630;28;20381;-52
2021/01/27 03:41:57;;;;;;;23.23;20.83;;;21.50;99.90;;;;;;5074588;28;20051;-51
2021/01/27 03:44:55;;;;;;;22.25;19.27;;;21.50;99.90;;;;;;5074593;28;20458;-55
2021/01/27 03:47:55;;;;;;;23.35;21.10;;;21.50;99.90;;;;;;5072234;28;20059;-50
2021/01/27 03:50:25;;;;;;;27.07;20.77;;;21.40;99.90;;;;;;5074442;28;20028;-50
2021/01/27 03:53:00;;;;;;;23.20;21.00;;;21.40;99.90;;;;;;5074213;28;20032;-50
2021/01/27 03:55:36;;;;;;;24.63;21.00;;;21.40;99.90;;;;;;5074549;28;20086;-54
2021/01/27 03:58:09;;;;;;;21.85;19.90;;;21.40;99.90;;;;;;5074158;28;20017;-55
2021/01/27 04:00:38;;;;;;;23.20;20.77;;;21.50;99.90;;;;;;5074179;28;20028;-54
2021/01/27 04:03:20;;;;;;;23.10;20.75;;;21.70;99.90;;;;;;5074091;28;20028;-52
2021/01/27 04:05:48;;;;;;;21.77;19.80;;;21.70;99.90;;;;;;5073982;28;20028;-49
2021/01/27 04:08:16;;;;;;;23.55;21.05;;;21.60;99.90;;;;;;5072805;28;20035;-51
2021/01/27 04:10:44;;;;;;;22.95;20.50;;;21.70;99.90;;;;;;5074010;28;20020;-52
2021/01/27 04:13:11;;;;;;;22.90;20.58;;;21.70;99.90;;;;;;5073727;28;20016;-51
2021/01/27 04:15:38;;;;;;;23.40;21.20;;;21.70;99.90;;;;;;5073844;28;20427;-48
2021/01/27 04:18:06;;;;;;;25.15;23.00;;;21.60;99.90;;;;;;5073919;28;20016;-54
2021/01/27 04:20:34;;;;;;;26.13;23.83;;;21.60;99.90;;;;;;5073879;28;20495;-52
2021/01/27 04:23:01;;;;;;;26.25;23.73;;;21.60;99.90;;;;;;5074169;28;20027;-54
2021/01/27 04:25:28;;;;;;;25.92;23.27;;;21.30;99.90;;;;;;5073961;28;20028;-52
2021/01/27 04:27:56;;;;;;;26.10;24.05;;;21.30;99.90;;;;;;5073522;28;20024;-55
2021/01/27 04:30:30;;;;;;;27.25;25.00;;;21.20;99.90;;;;;;5073628;28;20111;-57
2021/01/27 04:32:59;;;;;;;26.23;24.30;;;21.30;99.90;;;;;;5073566;28;20020;-56
2021/01/27 04:35:27;;;;;;;27.67;25.08;;;21.20;99.90;;;;;;5073452;28;20048;-46
2021/01/27 04:37:54;;;;;;;26.17;23.95;;;21.20;99.90;;;;;;5072738;28;20099;-54
2021/01/27 04:40:38;;;;;;;25.27;23.48;;;21.10;99.90;;;;;;5073559;28;20021;-60
2021/01/27 04:43:21;;;;;;;28.67;26.00;;;21.20;99.90;;;;;;5073390;28;20031;-58
2021/01/27 04:46:14;;;;;;;28.45;25.65;;;21.20;99.90;;;;;;5073330;28;20052;-58
2021/01/27 04:48:56;;;;;;;28.45;25.95;;;21.20;99.90;;;;;;5065265;28;20054;-54
2021/01/27 04:51:51;;;;;;;27.85;25.63;;;21.20;99.90;;;;;;5073447;28;20039;-54
2021/01/27 04:54:47;;;;;;;28.45;26.02;;;21.10;99.90;;;;;;5073364;28;20024;-58
2021/01/27 04:57:43;;;;;;;27.48;25.08;;;21.10;99.90;;;;;;5073169;28;20024;-58
2021/01/27 05:00:27;;;;;;;27.27;25.05;;;21.10;99.90;;;;;;5073137;28;20032;-59
2021/01/27 05:03:22;;;;;;;27.90;25.13;;;21.20;99.90;;;;;;5073231;28;20025;-54
2021/01/27 05:06:00;;;;;;;27.92;25.33;;;21.20;99.90;;;;;;5072902;28;20065;-54
2021/01/27 05:08:43;;;;;;;26.38;23.70;;;21.30;99.90;;;;;;5073173;28;20017;-54
2021/01/27 05:11:14;;;;;;;25.02;23.00;;;21.20;99.90;;;;;;5073050;28;20078;-54
2021/01/27 05:13:46;;;;;;;25.17;22.88;;;21.20;99.90;;;;;;5072908;28;20554;-58
2021/01/27 05:16:26;;;;;;;24.75;22.55;;;21.20;99.90;;;;;;5072978;28;20021;-55
2021/01/27 05:18:57;;;;;;;26.63;23.70;;;21.10;99.90;;;;;;5073100;28;20150;-59
2021/01/27 05:21:37;;;;;;;26.52;24.10;;;21.10;99.90;;;;;;5072992;28;20016;-50
2021/01/27 05:24:06;;;;;;;26.15;23.85;;;21.10;99.90;;;;;;5072973;28;20033;-46
2021/01/27 05:26:40;;;;;;;26.85;24.48;;;21.10;99.90;;;;;;5072932;28;20056;-51
2021/01/27 05:29:33;;;;;;;28.85;26.00;;;21.10;99.90;;;;;;5073139;28;20078;-51
2021/01/27 05:32:19;;;;;;;27.98;25.20;;;21.10;99.90;;;;;;5066986;28;20514;-50
2021/01/27 05:34:59;;;;;;;27.55;25.02;;;21.20;99.90;;;;;;5073383;28;20048;-50
2021/01/27 05:37:30;;;;;;;27.35;24.92;;;21.10;99.90;;;;;;5073127;28;20017;-51
2021/01/27 05:40:12;;;;;;;26.80;24.15;;;21.20;99.90;;;;;;5073246;28;20044;-48
2021/01/27 05:42:40;;;;;;;27.77;25.02;;;21.10;99.90;;;;;;5072999;28;20104;-47
2021/01/27 05:45:43;;;;;;;25.15;23.10;;;21.10;99.90;;;;;;5073527;28;20036;-48
2021/01/27 05:48:28;;;;;;;27.60;24.80;;;21.10;99.90;;;;;;5074568;28;20028;-49
2021/01/27 05:51:02;;;;;;;26.98;24.30;;;21.10;99.90;;;;;;5077240;28;20028;-50
2021/01/27 05:53:31;;;;;;;27.13;23.88;;;21.10;99.90;;;;;;5076733;28;20056;-46
2021/01/27 05:56:16;;;;;;;23.42;21.38;;;21.20;99.90;;;;;;5076962;28;20055;-49
2021/01/27 05:58:57;;;;;;;23.80;21.48;;;21.20;99.90;;;;;;5077281;28;20024;-47
2021/01/27 06:01:28;;;;;;;;;;;21.20;99.90;;;;;;5077288;28;20031;-51
2021/01/27 06:04:11;;;;;;;24.45;22.02;;;21.20;99.90;;;;;;5076661;28;19991;-59
2021/01/27 06:06:50;;;;;;;25.52;22.85;;;21.20;99.90;;;;;;5076206;28;20566;-53
2021/01/27 06:09:40;;;;;;;24.80;22.30;;;21.30;99.90;;;;;;5076719;28;20107;-57
2021/01/27 06:12:20;;;;;;;24.67;22.35;;;21.30;99.90;;;;;;5075299;28;20562;-54
2021/01/27 06:14:48;;;;;;;;;;;21.30;99.90;;;;;;5077002;28;20089;-53
2021/01/27 06:17:29;;;;;;;26.38;23.80;;;21.20;99.90;;;;;;5076804;28;19904;-53
2021/01/27 06:20:02;;;;;;;26.42;23.67;;;21.20;99.90;;;;;;5076749;28;20032;-52
2021/01/27 06:22:50;;;;;;;26.05;23.73;;;21.20;99.90;;;;;;5076784;28;20029;-52
2021/01/27 06:25:44;;;;;;;26.48;23.77;;;21.20;99.90;;;;;;5076350;28;20016;-50
2021/01/27 06:28:30;;;;;;;25.73;23.27;;;21.10;99.90;;;;;;5076546;28;20032;-58
2021/01/27 06:31:06;;;;;;;27.77;25.38;;;21.00;99.90;;;;;;5076478;28;25065;-58
2021/01/27 06:34:26;;;;;;;28.52;25.92;;;21.00;99.90;;;;;;5076489;28;20468;-63
2021/01/27 06:37:20;;;;;;;32.05;28.83;;;21.00;99.90;;;;;;4998410;28;20105;-58
2021/01/27 06:39:53;;;;;;;31.17;28.27;;;21.00;99.90;;;;;;5075635;28;20036;-67
2021/01/27 06:45:10;;;;;;;23.58;21.27;;;21.00;99.90;;;;;;5131959;27;20815;-59
2021/01/27 06:47:55;;;;;;;18.65;11.63;;;20.70;99.90;;;;;;5131808;28;20031;-64
2021/01/27 06:50:40;;;;;;;21.85;13.60;;;20.50;99.90;;;;;;5132104;28;20099;-60
2021/01/27 07:07:59;;;;;;;18.85;16.85;;;20.60;99.90;;;;;;5111459;27;20424;-57
2021/01/27 07:10:32;;;;;;;22.45;20.65;;;20.50;99.90;;;;;;5091651;28;20048;-56
2021/01/27 11:33:00;;;;;;;58.35;53.40;;;20.60;99.90;;;;;;5090521;27;20409;-53
2021/01/27 11:41:51;;;;;;;60.88;56.10;;;19.20;99.90;;;;;;5090551;27;20402;-48
2021/01/27 11:44:18;;;;;;;63.15;58.45;;;19.20;99.90;;;;;;5090580;28;20028;-51
2021/01/27 11:46:46;;;;;;;63.22;57.83;;;19.20;99.90;;;;;;5090364;28;20043;-51
2021/01/27 11:49:14;;;;;;;63.80;58.88;;;19.20;99.90;;;;;;5090264;28;20025;-51
2021/01/27 11:51:42;;;;;;;63.75;58.65;;;19.20;99.90;;;;;;5090380;28;20028;-52
2021/01/27 11:54:10;;;;;;;65.18;60.17;;;19.20;99.90;;;;;;5090201;28;20028;-51
2021/01/27 11:56:37;;;;;;;65.13;60.25;;;19.30;99.90;;;;;;5090075;28;20550;-53
2021/01/27 11:59:05;;;;;;;66.28;60.83;;;19.40;99.90;;;;;;5090051;28;20060;-53
2021/01/27 12:01:35;;;;;;;68.35;62.95;;;19.40;99.90;;;;;;5090033;28;20031;-51
2021/01/27 12:04:04;;;;;;;66.32;61.38;;;19.30;99.90;;;;;;5090395;28;20020;-51
2021/01/27 12:06:31;;;;;;;71.78;66.18;;;19.30;99.90;;;;;;5090036;28;20024;-50
2021/01/27 12:08:58;;;;;;;73.43;66.97;;;19.30;99.90;;;;;;5090012;28;20023;-53
2021/01/27 12:11:26;;;;;;;71.57;65.88;;;19.30;99.90;;;;;;5089956;28;20027;-47
2021/01/27 12:13:53;;;;;;;68.32;62.97;;;19.40;99.90;;;;;;5089738;28;20479;-49
2021/01/27 12:16:20;;;;;;;69.80;64.45;;;19.30;99.90;;;;;;5089943;28;20448;-50
2021/01/27 12:18:48;;;;;;;72.18;65.95;;;19.40;99.90;;;;;;5089901;28;20469;-52
2021/01/27 12:21:15;;;;;;;73.25;67.35;;;19.40;99.90;;;;;;5089889;28;20021;-52
2021/01/27 12:23:43;;;;;;;73.57;67.60;;;19.40;99.90;;;;;;5090099;28;20530;-53
2021/01/27 12:26:10;;;;;;;73.95;68.22;;;19.40;99.90;;;;;;5093408;28;20035;-51
2021/01/27 12:28:38;;;;;;;75.57;69.55;;;19.40;99.90;;;;;;5110074;28;20035;-52
2021/01/27 12:31:05;;;;;;;78.28;72.53;;;19.50;99.90;;;;;;5110085;28;20019;-54
2021/01/27 12:33:33;;;;;;;88.00;81.68;;;19.50;99.90;;;;;;5109919;28;20484;-50
2021/01/27 12:36:00;;;;;;;86.45;80.10;;;19.50;99.90;;;;;;5110030;28;20026;-54
2021/01/27 12:38:27;;;;;;;86.28;80.10;;;19.40;99.90;;;;;;5109926;28;20023;-52
2021/01/27 12:40:55;;;;;;;84.53;78.43;;;19.50;99.90;;;;;;5109568;28;20048;-52
2021/01/27 12:43:23;;;;;;;88.25;82.30;;;19.40;99.90;;;;;;5109792;28;20028;-50
2021/01/27 12:45:50;;;;;;;89.10;83.30;;;19.40;99.90;;;;;;5109851;28;20077;-53
2021/01/27 12:48:18;;;;;;;94.18;87.97;;;19.40;99.90;;;;;;5109772;28;20483;-50
2021/01/27 12:50:45;;;;;;;92.82;86.80;;;19.40;99.90;;;;;;5109906;28;20510;-54
2021/01/27 12:53:12;;;;;;;92.88;86.65;;;19.30;99.90;;;;;;5096039;28;20446;-52
2021/01/27 12:55:40;;;;;;;86.97;80.93;;;19.30;99.90;;;;;;5096088;28;20024;-51
2021/01/27 12:58:07;;;;;;;88.35;82.45;;;19.30;99.90;;;;;;5096013;28;20020;-50
2021/01/27 13:00:34;;;;;;;87.55;81.78;;;19.20;99.90;;;;;;5095901;28;20027;-47
2021/01/27 13:03:02;;;;;;;85.82;80.43;;;19.20;99.90;;;;;;5095935;28;20017;-51
2021/01/27 13:05:30;;;;;;;88.25;82.40;;;19.20;99.90;;;;;;5096100;28;20388;-53
2021/01/27 13:07:57;;;;;;;86.57;80.47;;;19.20;99.90;;;;;;5095927;28;20070;-51
2021/01/27 13:10:24;;;;;;;88.20;82.40;;;19.20;99.90;;;;;;5095846;28;20043;-53
2021/01/27 13:12:52;;;;;;;85.03;79.50;;;19.20;99.90;;;;;;5095811;28;20068;-53
2021/01/27 13:15:20;;;;;;;84.22;78.57;;;19.20;99.90;;;;;;5095647;28;20369;-50
2021/01/27 13:17:49;;;;;;;86.35;80.53;;;19.20;99.90;;;;;;5095658;28;20021;-49
2021/01/27 13:20:19;;;;;;;81.43;76.13;;;19.10;99.90;;;;;;5095518;28;20031;-49
2021/01/27 13:22:46;;;;;;;80.90;74.78;;;19.10;99.90;;;;;;5095546;28;20027;-50
2021/01/27 13:25:16;;;;;;;76.28;71.32;;;19.10;99.90;;;;;;5096040;28;20028;-53
2021/01/27 13:27:44;;;;;;;79.70;74.70;;;19.10;99.90;;;;;;5095395;28;20484;-49
2021/01/27 13:30:13;;;;;;;79.65;73.95;;;19.10;99.90;;;;;;5095475;28;20178;-53
2021/01/27 13:32:40;;;;;;;80.45;74.35;;;19.10;99.90;;;;;;5095307;28;20048;-53
2021/01/27 13:35:09;;;;;;;79.53;74.28;;;19.10;99.90;;;;;;5095390;28;20020;-53
2021/01/27 13:37:36;;;;;;;81.20;75.38;;;19.10;99.90;;;;;;5095422;28;20024;-51
2021/01/27 13:40:07;;;;;;;81.60;75.88;;;19.00;99.90;;;;;;5094894;28;20044;-51
2021/01/27 13:42:35;;;;;;;83.72;78.28;;;19.00;99.90;;;;;;5095146;28;20024;-52
2021/01/27 13:45:03;;;;;;;83.30;77.75;;;19.10;99.90;;;;;;5095090;28;20183;-52
2021/01/27 13:47:31;;;;;;;78.85;73.70;;;19.10;99.90;;;;;;5094985;28;20020;-54
2021/01/27 13:49:58;;;;;;;78.25;72.60;;;19.00;99.90;;;;;;5095044;28;20492;-53
2021/01/27 13:52:25;;;;;;;75.70;70.32;;;19.00;99.90;;;;;;5094865;28;20425;-48
2021/01/27 13:54:53;;;;;;;76.75;71.20;;;19.00;99.90;;;;;;5094884;28;20393;-46
2021/01/27 13:57:20;;;;;;;74.20;68.88;;;18.90;99.90;;;;;;5094869;28;20068;-49
2021/01/27 13:59:47;;;;;;;76.07;71.20;;;18.90;99.90;;;;;;5094765;28;20030;-50
2021/01/27 14:02:15;;;;;;;78.90;73.53;;;18.90;99.90;;;;;;5094786;28;20464;-48
2021/01/27 14:04:42;;;;;;;80.13;74.90;;;19.00;99.90;;;;;;5093576;28;20111;-51
2021/01/27 14:07:09;;;;;;;79.50;74.38;;;18.90;99.90;;;;;;5094574;28;20020;-50
2021/01/27 14:09:37;;;;;;;81.20;75.68;;;19.00;99.90;;;;;;5094630;28;20091;-53
2021/01/27 14:12:04;;;;;;;82.43;76.10;;;19.00;99.90;;;;;;5094575;28;20016;-52
2021/01/27 14:14:32;;;;;;;79.93;74.70;;;19.00;99.90;;;;;;5094496;28;20085;-52
2021/01/27 14:16:59;;;;;;;82.07;76.03;;;19.00;99.90;;;;;;5094405;28;20040;-52
2021/01/27 14:19:26;;;;;;;81.35;75.55;;;19.00;99.90;;;;;;5094666;28;20055;-53
2021/01/27 14:21:54;;;;;;;79.65;73.97;;;19.10;99.90;;;;;;5094342;28;20023;-50
2021/01/27 14:24:21;;;;;;;80.90;75.20;;;19.10;99.90;;;;;;5094436;28;20186;-52
2021/01/27 14:26:49;;;;;;;83.03;77.13;;;19.10;99.90;;;;;;5094124;28;20492;-50
2021/01/27 14:29:16;;;;;;;83.63;77.68;;;19.20;99.90;;;;;;5094075;28;20044;-53
2021/01/27 14:31:43;;;;;;;86.53;80.28;;;19.20;99.90;;;;;;5094138;28;20098;-50
2021/01/27 14:34:11;;;;;;;87.82;81.93;;;19.20;99.90;;;;;;5094223;28;20026;-51
2021/01/27 14:36:38;;;;;;;90.30;83.63;;;19.20;99.90;;;;;;5094012;28;20026;-47
2021/01/27 14:39:06;;;;;;;90.63;84.07;;;19.20;99.90;;;;;;5093948;28;20028;-50
2021/01/27 14:41:33;;;;;;;91.60;84.47;;;19.20;99.90;;;;;;5093573;28;20493;-49
2021/01/27 14:44:00;;;;;;;89.43;83.07;;;19.20;99.90;;;;;;5093925;28;20020;-49
2021/01/27 14:46:28;;;;;;;88.93;82.22;;;19.20;99.90;;;;;;5093727;28;20033;-54
2021/01/27 14:48:55;;;;;;;89.88;83.72;;;19.20;99.90;;;;;;5093688;28;20028;-52
2021/01/27 14:51:24;;;;;;;88.65;82.22;;;19.20;99.90;;;;;;5093648;28;20047;-50
2021/01/27 14:53:51;;;;;;;86.70;79.80;;;19.20;99.90;;;;;;5093475;28;20079;-47
2021/01/27 14:56:19;;;;;;;85.93;79.00;;;19.20;99.90;;;;;;5093629;28;20088;-51
2021/01/27 14:58:46;;;;;;;83.43;77.03;;;19.20;99.90;;;;;;5093556;28;20024;-50
2021/01/27 15:01:13;;;;;;;84.72;77.80;;;19.20;99.90;;;;;;5093439;28;20027;-50
2021/01/27 15:03:40;;;;;;;82.68;75.97;;;19.20;99.90;;;;;;5093699;28;20016;-48
2021/01/27 15:06:08;;;;;;;83.68;77.47;;;19.20;99.90;;;;;;5093535;28;20034;-48
2021/01/27 15:08:35;;;;;;;88.43;81.50;;;19.20;99.90;;;;;;5093416;28;20113;-48
2021/01/27 15:11:02;;;;;;;90.53;83.72;;;19.20;99.90;;;;;;5093488;28;20131;-51
2021/01/27 15:13:30;;;;;;;91.75;84.55;;;19.20;99.90;;;;;;5093511;28;20027;-48
2021/01/27 15:15:57;;;;;;;90.93;83.82;;;19.20;99.90;;;;;;5093195;28;20028;-52
2021/01/27 15:18:25;;;;;;;94.60;87.63;;;19.20;99.90;;;;;;5093254;28;20077;-51
2021/01/27 15:20:52;;;;;;;93.38;86.25;;;19.20;99.90;;;;;;5093244;28;20024;-51
2021/01/27 15:23:19;;;;;;;94.22;86.90;;;19.10;99.90;;;;;;5093284;28;20016;-50
2021/01/27 15:25:47;;;;;;;91.63;84.53;;;19.20;99.90;;;;;;5093149;28;20016;-51
2021/01/27 15:28:14;;;;;;;87.63;81.03;;;19.20;99.90;;;;;;5093238;28;20051;-55
2021/01/27 15:30:41;;;;;;;87.93;81.47;;;19.20;99.90;;;;;;5093178;28;20042;-47
2021/01/27 15:33:09;;;;;;;90.32;83.72;;;19.10;99.90;;;;;;5093117;28;20036;-48
2021/01/27 15:35:36;;;;;;;87.07;80.63;;;19.20;99.90;;;;;;5093142;28;20457;-51
2021/01/27 15:38:06;;;;;;;89.00;82.13;;;19.20;99.90;;;;;;5092985;28;20047;-50
2021/01/27 15:40:38;;;;;;;90.57;84.05;;;19.30;99.90;;;;;;5092922;28;20040;-47
2021/01/27 15:43:15;;;;;;;90.82;84.47;;;19.20;99.90;;;;;;5093033;28;20027;-51
2021/01/27 15:45:44;;;;;;;91.30;84.38;;;19.20;99.90;;;;;;5093006;28;20031;-49
2021/01/27 15:48:13;;;;;;;91.20;85.05;;;19.30;99.90;;;;;;5092984;28;20016;-50
2021/01/27 15:50:41;;;;;;;90.30;84.15;;;19.30;99.90;;;;;;5092959;28;20066;-51
2021/01/27 15:53:09;;;;;;;87.63;81.13;;;19.30;99.90;;;;;;5093073;28;20028;-52
2021/01/27 15:55:37;;;;;;;86.03;79.68;;;19.30;99.90;;;;;;5093093;28;20070;-51
2021/01/27 15:58:05;;;;;;;88.35;82.00;;;19.20;99.90;;;;;;5092955;28;20283;-52
2021/01/27 16:00:34;;;;;;;88.00;81.07;;;19.20;99.90;;;;;;5092905;28;20032;-53
2021/01/27 16:03:02;;;;;;;85.57;79.20;;;19.30;99.90;;;;;;5092846;28;20036;-50
2021/01/27 16:05:31;;;;;;;87.07;79.80;;;19.30;99.90;;;;;;5092876;28;20065;-52
2021/01/27 16:07:59;;;;;;;89.72;82.10;;;19.30;99.90;;;;;;5092828;28;20020;-49
2021/01/27 16:10:27;;;;;;;92.25;84.80;;;19.30;99.90;;;;;;5092828;28;20024;-51
2021/01/27 16:12:57;;;;;;;90.97;83.40;;;19.30;99.90;;;;;;5092971;28;20035;-53
2021/01/27 16:15:28;;;;;;;90.20;82.27;;;19.30;99.90;;;;;;5092778;28;20552;-50
2021/01/27 16:17:56;;;;;;;87.70;80.32;;;19.30;99.90;;;;;;5092765;28;20024;-51
2021/01/27 16:20:24;;;;;;;89.97;82.45;;;19.30;99.90;;;;;;5092709;28;20165;-50
2021/01/27 16:22:52;;;;;;;91.28;83.35;;;19.30;99.90;;;;;;5092759;28;20027;-50
2021/01/27 16:25:29;;;;;;;94.20;86.20;;;19.30;99.90;;;;;;5092666;28;20378;-50
2021/01/27 16:27:57;;;;;;;91.82;84.28;;;19.30;99.90;;;;;;5095427;28;20471;-49
2021/01/27 16:30:24;;;;;;;89.18;81.60;;;19.30;99.90;;;;;;5096387;28;20027;-50
2021/01/27 16:32:52;;;;;;;87.28;80.13;;;19.30;99.90;;;;;;5095140;28;20036;-47
2021/01/27 16:35:22;;;;;;;86.05;79.05;;;19.20;99.90;;;;;;5096471;28;20024;-49
2021/01/27 16:37:50;;;;;;;88.32;80.80;;;19.20;99.90;;;;;;5096366;28;20024;-47
2021/01/27 16:40:19;;;;;;;89.30;80.50;;;19.20;99.90;;;;;;5096098;28;20075;-51
2021/01/27 16:42:47;;;;;;;84.43;77.50;;;19.20;99.90;;;;;;5096307;28;20024;-50
2021/01/27 16:45:15;;;;;;;82.03;74.75;;;19.20;99.90;;;;;;5096128;28;20020;-51
2021/01/27 16:47:42;;;;;;;81.32;74.72;;;19.30;99.90;;;;;;5096204;28;20031;-52
2021/01/27 16:50:11;;;;;;;81.53;74.75;;;19.20;99.90;;;;;;5096051;28;20054;-52
2021/01/27 16:52:40;;;;;;;86.85;78.90;;;19.20;99.90;;;;;;5096037;28;20024;-51
2021/01/27 16:55:09;;;;;;;81.97;74.85;;;19.30;99.90;;;;;;5096075;28;20362;-48
2021/01/27 16:57:37;;;;;;;79.38;72.75;;;19.20;99.90;;;;;;5096006;28;20525;-52
2021/01/27 17:00:07;;;;;;;78.25;72.05;;;19.30;99.90;;;;;;5095815;28;20256;-50
2021/01/27 17:02:35;;;;;;;82.50;75.85;;;19.20;99.90;;;;;;5095989;28;20028;-52
2021/01/27 17:05:03;;;;;;;82.43;75.32;;;19.30;99.90;;;;;;5095919;28;20030;-47
2021/01/27 17:07:30;;;;;;;81.32;74.85;;;19.30;99.90;;;;;;5095880;28;20104;-50
2021/01/27 17:09:57;;;;;;;80.70;74.03;;;19.30;99.90;;;;;;5095808;28;20026;-50
2021/01/27 17:12:25;;;;;;;77.88;71.65;;;19.30;99.90;;;;;;5095804;28;20024;-52
2021/01/27 17:14:52;;;;;;;68.80;62.95;;;19.30;99.90;;;;;;5095898;28;20035;-52
2021/01/27 17:17:19;;;;;;;69.15;63.33;;;19.20;99.90;;;;;;5095675;28;20392;-50
2021/01/27 17:19:47;;;;;;;65.90;60.10;;;19.20;99.90;;;;;;5095528;28;20020;-47
2021/01/27 17:22:14;;;;;;;64.50;58.70;;;19.20;99.90;;;;;;5095635;28;20456;-50
2021/01/27 17:24:42;;;;;;;65.18;59.50;;;19.30;99.90;;;;;;5095456;28;20541;-50
2021/01/27 17:27:10;;;;;;;63.22;57.90;;;19.30;99.90;;;;;;5095487;28;20434;-46
2021/01/27 17:29:37;;;;;;;64.47;59.28;;;19.20;99.90;;;;;;5095445;28;20016;-49
2021/01/27 17:32:05;;;;;;;65.05;59.67;;;19.30;99.90;;;;;;5095377;28;20016;-52
2021/01/27 17:34:33;;;;;;;66.78;61.42;;;19.30;99.90;;;;;;5095456;28;20024;-50
2021/01/27 17:37:00;;;;;;;69.20;63.47;;;19.30;99.90;;;;;;5095418;28;20016;-48
2021/01/27 17:39:28;;;;;;;69.07;63.05;;;19.30;99.90;;;;;;5094835;28;20085;-51